createdAt,value
2019-05-18T00:00:51.699Z,96130.52
2019-05-18T00:03:19.295Z,96131.05
2019-05-18T00:05:46.824Z,96126.58
2019-05-18T00:08:14.269Z,96133.20
2019-05-18T00:10:41.738Z,96128.16
2019-05-18T00:13:09.223Z,96131.83
2019-05-18T00:15:36.694Z,96133.30
2019-05-18T00:18:04.213Z,96133.61
2019-05-18T00:20:31.691Z,96139.61
2019-05-18T00:22:59.185Z,96139.52
2019-05-18T00:25:26.705Z,96141.21
2019-05-18T00:27:54.181Z,96141.42
2019-05-18T00:30:21.973Z,96134.22
2019-05-18T00:32:49.479Z,96132.64
2019-05-18T00:35:17.016Z,96132.50
2019-05-18T00:37:44.488Z,96127.86
2019-05-18T00:40:12.003Z,96127.48
2019-05-18T00:42:39.533Z,96126.53
2019-05-18T00:45:07.005Z,96122.88
2019-05-18T00:47:41.249Z,96128.58
2019-05-18T00:50:01.983Z,96120.63
2019-05-18T00:52:29.472Z,96119.23
2019-05-18T00:54:56.955Z,96120.75
2019-05-18T00:57:24.464Z,96122.67
2019-05-18T00:59:51.917Z,96121.43
2019-05-18T01:02:19.394Z,96111.09
2019-05-18T01:04:46.893Z,96109.66
2019-05-18T01:07:14.442Z,96107.00
2019-05-18T01:09:41.946Z,96103.56
2019-05-18T01:12:09.422Z,96111.85
2019-05-18T01:14:36.882Z,96110.98
2019-05-18T01:17:04.336Z,96104.42
2019-05-18T01:19:31.794Z,96099.14
2019-05-18T01:21:59.284Z,96104.55
2019-05-18T01:24:26.780Z,96100.39
2019-05-18T01:26:54.501Z,96106.45
2019-05-18T01:29:22.039Z,96109.59
2019-05-18T01:31:49.828Z,96115.06
2019-05-18T01:34:17.455Z,96099.85
2019-05-18T01:36:45.036Z,96111.85
2019-05-18T01:39:12.477Z,96112.02
2019-05-18T01:41:39.934Z,96111.19
2019-05-18T01:44:07.389Z,96114.16
2019-05-18T01:46:34.955Z,96115.06
2019-05-18T01:49:02.439Z,96114.84
2019-05-18T01:51:29.939Z,96113.14
2019-05-18T01:53:57.419Z,96112.05
2019-05-18T01:56:24.936Z,96111.70
2019-05-18T01:58:52.529Z,96112.20
2019-05-18T02:01:20.060Z,96112.61
2019-05-18T02:03:47.526Z,96113.14
2019-05-18T02:06:15.013Z,96117.12
2019-05-18T02:08:42.474Z,96112.14
2019-05-18T02:11:09.967Z,96107.65
2019-05-18T02:13:37.460Z,96099.67
2019-05-18T02:16:04.949Z,96097.35
2019-05-18T02:18:32.426Z,96096.80
2019-05-18T02:20:59.934Z,96098.52
2019-05-18T02:23:27.396Z,96093.27
2019-05-18T02:25:54.960Z,96091.06
2019-05-18T02:28:22.463Z,96089.53
2019-05-18T02:30:49.946Z,96085.47
2019-05-18T02:33:17.718Z,96091.70
2019-05-18T02:35:45.193Z,96086.45
2019-05-18T02:38:16.683Z,96082.11
2019-05-18T02:40:45.145Z,96079.07
2019-05-18T02:43:12.618Z,96084.44
2019-05-18T02:45:40.224Z,96083.64
2019-05-18T02:48:07.681Z,96081.39
2019-05-18T02:50:35.207Z,96079.62
2019-05-18T02:53:02.691Z,96080.59
2019-05-18T02:55:30.221Z,96082.66
2019-05-18T02:57:58.240Z,96085.35
2019-05-18T03:00:25.771Z,96075.52
2019-05-18T03:02:53.246Z,96079.49
2019-05-18T03:05:20.737Z,96077.34
2019-05-18T03:07:48.286Z,96065.63
2019-05-18T03:10:15.805Z,96072.45
2019-05-18T03:12:43.304Z,96069.95
2019-05-18T03:15:10.777Z,96072.02
2019-05-18T03:17:38.320Z,96080.31
2019-05-18T03:20:05.795Z,96081.14
2019-05-18T03:22:33.284Z,96077.16
2019-05-18T03:25:00.740Z,96075.32
2019-05-18T03:27:28.219Z,96070.92
2019-05-18T03:29:55.712Z,96072.20
2019-05-18T03:32:23.159Z,96074.97
2019-05-18T03:34:50.691Z,96078.66
2019-05-18T03:37:18.181Z,96072.31
2019-05-18T03:39:45.701Z,96066.80
2019-05-18T03:42:13.158Z,96056.66
2019-05-18T03:44:40.666Z,96062.20
2019-05-18T03:47:08.114Z,96065.40
2019-05-18T03:49:35.895Z,96072.73
2019-05-18T03:52:03.372Z,96075.17
2019-05-18T03:54:30.864Z,96064.98
2019-05-18T03:56:58.324Z,96060.95
2019-05-18T03:59:25.813Z,96061.14
2019-05-18T04:01:53.286Z,96064.39
2019-05-18T04:04:20.810Z,96062.16
2019-05-18T04:06:48.318Z,96059.15
2019-05-18T04:09:15.890Z,96062.76
2019-05-18T04:11:43.334Z,96057.52
2019-05-18T04:14:11.161Z,96056.33
2019-05-18T04:16:38.796Z,96063.45
2019-05-18T04:19:06.322Z,96064.00
2019-05-18T04:21:33.796Z,96065.12
2019-05-18T04:24:01.266Z,96054.02
2019-05-18T04:26:28.726Z,96058.43
2019-05-18T04:28:56.212Z,96060.37
2019-05-18T04:31:24.320Z,96057.07
2019-05-18T04:33:52.841Z,96049.64
2019-05-18T04:36:20.386Z,96052.65
2019-05-18T04:38:47.880Z,96048.31
2019-05-18T04:41:15.370Z,96053.27
2019-05-18T04:43:42.851Z,96046.34
2019-05-18T04:46:10.307Z,96039.38
2019-05-18T04:48:37.834Z,96046.27
2019-05-18T04:51:05.328Z,96048.55
2019-05-18T04:53:32.814Z,96052.13
2019-05-18T04:56:00.275Z,96049.12
2019-05-18T04:58:27.775Z,96043.71
2019-05-18T05:00:55.233Z,96043.93
2019-05-18T05:03:22.732Z,96047.91
2019-05-18T05:05:50.191Z,96048.84
2019-05-18T05:08:17.681Z,96044.92
2019-05-18T05:10:45.127Z,96042.70
2019-05-18T05:13:12.621Z,96040.18
2019-05-18T05:15:40.102Z,96040.45
2019-05-18T05:18:07.591Z,96039.16
2019-05-18T05:20:35.039Z,96035.52
2019-05-18T05:23:02.539Z,96037.14
2019-05-18T05:25:30.030Z,96034.50
2019-05-18T05:27:57.532Z,96035.94
2019-05-18T05:30:25.049Z,96038.84
2019-05-18T05:32:52.539Z,96041.39
2019-05-18T05:35:20.006Z,96033.09
2019-05-18T05:37:47.476Z,96040.63
2019-05-18T05:40:15.198Z,96038.20
2019-05-18T05:42:42.679Z,96040.34
2019-05-18T05:45:10.189Z,96042.08
2019-05-18T05:47:37.673Z,96036.98
2019-05-18T05:50:05.782Z,96033.85
2019-05-18T05:52:33.263Z,96035.72
2019-05-18T05:55:00.885Z,96037.82
2019-05-18T05:57:28.399Z,96034.59
2019-05-18T05:59:55.900Z,96029.63
2019-05-18T06:02:23.417Z,96032.31
2019-05-18T06:04:50.931Z,96035.11
2019-05-18T06:07:18.397Z,96033.39
2019-05-18T06:09:45.952Z,96032.98
2019-05-18T06:12:13.410Z,96021.67
2019-05-18T06:14:40.861Z,96029.48
2019-05-18T06:17:08.619Z,96041.89
2019-05-18T06:19:35.902Z,96044.64
2019-05-18T06:22:03.422Z,96043.77
2019-05-18T06:24:30.888Z,96041.87
2019-05-18T06:26:58.412Z,96043.53
2019-05-18T06:29:25.878Z,96046.63
2019-05-18T06:31:53.375Z,96039.84
2019-05-18T06:34:21.047Z,96041.62
2019-05-18T06:36:48.538Z,96038.39
2019-05-18T06:39:16.043Z,96034.78
2019-05-18T06:41:43.667Z,96036.73
2019-05-18T06:44:11.218Z,96035.89
2019-05-18T06:46:39.091Z,96046.17
2019-05-18T06:49:06.559Z,96045.86
2019-05-18T06:51:34.030Z,96055.42
2019-05-18T06:54:01.588Z,96058.84
2019-05-18T06:56:29.119Z,96056.90
2019-05-18T06:58:56.600Z,96057.00
2019-05-18T07:01:24.114Z,96055.89
2019-05-18T07:03:51.589Z,96058.23
2019-05-18T07:06:19.047Z,96053.46
2019-05-18T07:08:46.534Z,96056.28
2019-05-18T07:11:14.985Z,96056.81
2019-05-18T07:13:42.472Z,96054.78
2019-05-18T07:16:09.931Z,96059.32
2019-05-18T07:18:37.406Z,96052.92
2019-05-18T07:21:04.847Z,96053.53
2019-05-18T07:23:32.326Z,96053.52
2019-05-18T07:25:59.866Z,96048.03
2019-05-18T07:28:27.343Z,96045.34
2019-05-18T07:30:54.827Z,96050.15
2019-05-18T07:33:22.512Z,96044.87
2019-05-18T07:35:50.167Z,96043.31
2019-05-18T07:38:17.625Z,96041.09
2019-05-18T07:40:45.162Z,96044.18
2019-05-18T07:43:12.634Z,96042.18
2019-05-18T07:45:41.004Z,96046.65
2019-05-18T07:48:08.937Z,96048.69
2019-05-18T07:50:36.811Z,96043.09
2019-05-18T07:53:04.259Z,96041.31
2019-05-18T07:55:31.771Z,96043.73
2019-05-18T07:57:59.243Z,96044.23
2019-05-18T08:00:26.754Z,96042.16
2019-05-18T08:02:54.257Z,96043.94
2019-05-18T08:05:21.734Z,96036.39
2019-05-18T08:07:49.226Z,96038.98
2019-05-18T08:10:16.761Z,96036.70
2019-05-18T08:12:44.218Z,96031.17
2019-05-18T08:15:11.750Z,96023.03
2019-05-18T08:17:39.261Z,96026.77
2019-05-18T08:20:06.771Z,96024.12
2019-05-18T08:22:34.226Z,96025.14
2019-05-18T08:25:01.711Z,96023.22
2019-05-18T08:27:29.318Z,96021.52
2019-05-18T08:29:56.820Z,96022.72
2019-05-18T08:32:24.306Z,96015.78
2019-05-18T08:34:51.986Z,96016.22
2019-05-18T08:37:19.443Z,96016.34
2019-05-18T08:39:47.511Z,96021.38
2019-05-18T08:42:14.968Z,96023.20
2019-05-18T08:44:42.421Z,96019.98
2019-05-18T08:47:09.890Z,96021.70
2019-05-18T08:49:37.381Z,96023.91
2019-05-18T08:52:08.487Z,96016.73
2019-05-18T08:54:31.692Z,96019.02
2019-05-18T08:56:58.678Z,96018.37
2019-05-18T08:59:25.738Z,96009.58
2019-05-18T09:01:52.819Z,96014.41
2019-05-18T09:04:19.864Z,96017.31
2019-05-18T09:06:46.892Z,96018.10
2019-05-18T09:09:13.896Z,96015.50
2019-05-18T09:11:40.962Z,96018.71
2019-05-18T09:14:08.321Z,96020.54
2019-05-18T09:16:35.441Z,96021.81
2019-05-18T09:19:02.517Z,96019.98
2019-05-18T09:21:29.562Z,96025.94
2019-05-18T09:23:56.868Z,96029.79
2019-05-18T09:26:24.455Z,96029.04
2019-05-18T09:28:51.569Z,96031.18
2019-05-18T09:31:18.566Z,96030.09
2019-05-18T09:33:45.559Z,96027.53
2019-05-18T09:36:12.955Z,96037.52
2019-05-18T09:38:40.004Z,96030.30
2019-05-18T09:41:07.086Z,96031.50
2019-05-18T09:43:34.158Z,96031.40
2019-05-18T09:46:01.318Z,96033.30
2019-05-18T09:48:28.492Z,96038.97
2019-05-18T09:50:55.517Z,96034.84
2019-05-18T09:53:22.532Z,96028.97
2019-05-18T09:55:49.714Z,96036.03
2019-05-18T09:58:16.788Z,96031.36
2019-05-18T10:00:43.820Z,96025.70
2019-05-18T10:03:10.899Z,96031.33
2019-05-18T10:05:38.878Z,96031.80
2019-05-18T10:08:05.981Z,96034.59
2019-05-18T10:10:33.716Z,96039.56
2019-05-18T10:13:00.089Z,96039.56
2019-05-18T10:15:27.231Z,96037.89
2019-05-18T10:17:54.258Z,96039.34
2019-05-18T10:20:21.250Z,96041.94
2019-05-18T10:22:59.152Z,96041.22
2019-05-18T10:25:15.489Z,96043.00
2019-05-18T10:27:42.633Z,96038.89
2019-05-18T10:30:09.642Z,96037.60
2019-05-18T10:32:36.830Z,96043.63
2019-05-18T10:35:04.508Z,96031.55
2019-05-18T10:37:31.845Z,96030.71
2019-05-18T10:39:59.036Z,96032.38
2019-05-18T10:42:26.066Z,96034.94
2019-05-18T10:44:53.094Z,96033.68
2019-05-18T10:47:20.186Z,96042.16
2019-05-18T10:49:47.174Z,96032.52
2019-05-18T10:52:14.182Z,96039.73
2019-05-18T10:54:41.943Z,96035.56
2019-05-18T10:57:08.983Z,96032.30
2019-05-18T10:59:36.011Z,96029.70
2019-05-18T11:02:03.046Z,96025.70
2019-05-18T11:04:30.097Z,96020.54
2019-05-18T11:06:57.136Z,96029.51
2019-05-18T11:09:24.188Z,96030.53
2019-05-18T11:11:51.205Z,96027.14
2019-05-18T11:14:18.947Z,96025.27
2019-05-18T11:16:45.464Z,96027.23
2019-05-18T11:19:12.493Z,96028.81
2019-05-18T11:21:39.555Z,96027.23
2019-05-18T11:24:06.538Z,96028.02
2019-05-18T11:26:33.598Z,96022.51
2019-05-18T11:29:00.588Z,96016.78
2019-05-18T11:31:27.665Z,96017.48
2019-05-18T11:33:54.667Z,96013.89
2019-05-18T11:36:21.697Z,96017.02
2019-05-18T11:38:49.318Z,96020.77
2019-05-18T11:41:16.415Z,96020.41
2019-05-18T11:43:43.425Z,96013.62
2019-05-18T11:46:11.650Z,96012.88
2019-05-18T11:48:39.157Z,96016.05
2019-05-18T11:51:06.644Z,96010.41
2019-05-18T11:53:34.110Z,96007.05
2019-05-18T11:56:01.621Z,96003.66
2019-05-18T11:58:28.619Z,96006.59
2019-05-18T12:00:55.718Z,96014.36
2019-05-18T12:03:22.746Z,96000.52
2019-05-18T12:05:49.766Z,96004.84
2019-05-18T12:08:16.758Z,96001.50
2019-05-18T12:10:43.854Z,95999.97
2019-05-18T12:13:10.844Z,96000.14
2019-05-18T12:15:37.912Z,96002.27
2019-05-18T12:18:04.949Z,95999.33
2019-05-18T12:20:31.971Z,96002.43
2019-05-18T12:22:58.962Z,95999.16
2019-05-18T12:25:25.976Z,95999.68
2019-05-18T12:27:53.405Z,96001.36
2019-05-18T12:30:20.943Z,96001.98
2019-05-18T12:32:48.144Z,96004.49
2019-05-18T12:35:15.367Z,96001.21
2019-05-18T12:37:42.391Z,95996.97
2019-05-18T12:40:09.573Z,95988.31
2019-05-18T12:42:36.673Z,95996.17
2019-05-18T12:45:03.712Z,95988.89
2019-05-18T12:47:31.770Z,95990.58
2019-05-18T12:49:58.911Z,95987.30
2019-05-18T12:52:26.007Z,95986.05
2019-05-18T12:54:53.511Z,95986.65
2019-05-18T12:57:21.043Z,95984.91
2019-05-18T12:59:48.640Z,95985.50
2019-05-18T13:02:15.701Z,95979.45
2019-05-18T13:04:42.741Z,95981.95
2019-05-18T13:07:09.793Z,95978.04
2019-05-18T13:09:36.841Z,95974.56
2019-05-18T13:12:03.932Z,95975.30
2019-05-18T13:14:30.934Z,95969.29
2019-05-18T13:16:57.962Z,95980.08
2019-05-18T13:19:26.030Z,95974.00
2019-05-18T13:21:53.268Z,95977.34
2019-05-18T13:24:20.445Z,95976.13
2019-05-18T13:26:47.547Z,95971.42
2019-05-18T13:29:14.593Z,95966.93
2019-05-18T13:31:41.711Z,95968.81
2019-05-18T13:34:08.759Z,95969.34
2019-05-18T13:36:35.832Z,95968.41
2019-05-18T13:39:02.842Z,95963.69
2019-05-18T13:41:29.861Z,95962.21
2019-05-18T13:43:57.607Z,95962.02
2019-05-18T13:46:24.609Z,95957.67
2019-05-18T13:48:51.611Z,95958.12
2019-05-18T13:51:18.653Z,95958.59
2019-05-18T13:53:45.662Z,95962.17
2019-05-18T13:56:12.742Z,95958.80
2019-05-18T13:58:39.819Z,95956.73
2019-05-18T14:01:06.908Z,95960.45
2019-05-18T14:03:33.945Z,95958.28
2019-05-18T14:06:00.962Z,95961.92
2019-05-18T14:08:27.977Z,95949.27
2019-05-18T14:10:54.986Z,95953.93
2019-05-18T14:13:21.980Z,95948.48
2019-05-18T14:15:49.116Z,95954.91
2019-05-18T14:18:16.097Z,95948.02
2019-05-18T14:20:43.160Z,95949.14
2019-05-18T14:23:10.197Z,95948.08
2019-05-18T14:25:37.178Z,95949.36
2019-05-18T14:28:04.189Z,95950.95
2019-05-18T14:30:31.169Z,95954.77
2019-05-18T14:32:58.249Z,95948.99
2019-05-18T14:35:25.254Z,95953.34
2019-05-18T14:37:52.297Z,95949.55
2019-05-18T14:40:19.285Z,95953.31
2019-05-18T14:42:46.312Z,95954.44
2019-05-18T14:45:13.436Z,95952.45
2019-05-18T14:47:40.678Z,95955.33
2019-05-18T14:50:07.808Z,95947.59
2019-05-18T14:52:34.914Z,95950.05
2019-05-18T14:55:02.023Z,95952.93
2019-05-18T14:57:29.157Z,95954.20
2019-05-18T14:59:56.171Z,95953.70
2019-05-18T15:02:23.393Z,95950.95
2019-05-18T15:04:53.376Z,95949.17
2019-05-18T15:07:17.500Z,95955.33
2019-05-18T15:09:44.494Z,95956.39
2019-05-18T15:12:11.543Z,95948.74
2019-05-18T15:14:38.672Z,95950.27
2019-05-18T15:17:05.693Z,95951.36
2019-05-18T15:19:32.714Z,95956.22
2019-05-18T15:21:59.762Z,95952.55
2019-05-18T15:24:26.781Z,95954.70
2019-05-18T15:26:53.938Z,95953.36
2019-05-18T15:29:20.968Z,95952.79
2019-05-18T15:31:48.172Z,95951.83
2019-05-18T15:34:15.194Z,95954.39
2019-05-18T15:36:42.194Z,95957.46
2019-05-18T15:39:09.517Z,95953.76
2019-05-18T15:41:36.671Z,95947.09
2019-05-18T15:44:03.740Z,95952.88
2019-05-18T15:46:30.814Z,95946.89
2019-05-18T15:48:57.869Z,95953.08
2019-05-18T15:51:24.903Z,95948.33
2019-05-18T15:53:51.941Z,95946.91
2019-05-18T15:56:19.453Z,95956.06
2019-05-18T15:58:47.003Z,95950.97
2019-05-18T16:01:14.497Z,95954.25
2019-05-18T16:03:41.498Z,95956.92
2019-05-18T16:06:08.562Z,95952.72
2019-05-18T16:08:36.191Z,95953.28
2019-05-18T16:11:03.407Z,95952.82
2019-05-18T16:13:30.433Z,95953.98
2019-05-18T16:15:57.437Z,95954.00
2019-05-18T16:18:25.060Z,95956.80
2019-05-18T16:20:52.606Z,95954.36
2019-05-18T16:23:19.673Z,95951.94
2019-05-18T16:25:46.820Z,95951.48
2019-05-18T16:28:13.919Z,95952.24
2019-05-18T16:30:41.391Z,95951.48
2019-05-18T16:33:08.912Z,95945.69
2019-05-18T16:35:35.907Z,95951.59
2019-05-18T16:38:02.911Z,95956.23
2019-05-18T16:40:30.262Z,95954.72
2019-05-18T16:42:57.925Z,95947.83
2019-05-18T16:45:25.012Z,95946.55
2019-05-18T16:47:52.034Z,95952.39
2019-05-18T16:50:19.090Z,95952.48
2019-05-18T16:52:46.253Z,95955.35
2019-05-18T16:55:13.294Z,95952.67
2019-05-18T16:57:40.353Z,95950.55
2019-05-18T17:00:10.026Z,95953.38
2019-05-18T17:02:37.063Z,95964.94
2019-05-18T17:05:04.041Z,95960.83
2019-05-18T17:07:31.163Z,95963.30
2019-05-18T17:09:58.164Z,95958.75
2019-05-18T17:12:25.142Z,95971.92
2019-05-18T17:14:52.127Z,95969.19
2019-05-18T17:17:19.683Z,95973.38
2019-05-18T17:19:47.345Z,95972.95
2019-05-18T17:22:14.946Z,95976.83
2019-05-18T17:24:42.427Z,95977.25
2019-05-18T17:27:10.075Z,95982.47
2019-05-18T17:29:37.580Z,95981.73
2019-05-18T17:32:05.663Z,95981.14
2019-05-18T17:34:33.134Z,95984.31
2019-05-18T17:37:00.643Z,95979.10
2019-05-18T17:39:28.138Z,95981.32
2019-05-18T17:41:56.631Z,95990.43
2019-05-18T17:44:24.969Z,95982.81
2019-05-18T17:46:52.648Z,95990.58
2019-05-18T17:49:26.694Z,95986.37
2019-05-18T17:51:47.714Z,95985.47
2019-05-18T17:54:14.762Z,95989.28
2019-05-18T17:56:41.801Z,95991.33
2019-05-18T17:59:08.820Z,95988.91
2019-05-18T18:01:36.354Z,95990.81
2019-05-18T18:04:03.938Z,95994.46
2019-05-18T18:06:31.705Z,95987.91
2019-05-18T18:08:59.217Z,95998.16
2019-05-18T18:11:26.737Z,95992.87
2019-05-18T18:13:53.837Z,95993.45
2019-05-18T18:16:21.458Z,95995.94
2019-05-18T18:18:48.942Z,95997.25
2019-05-18T18:21:15.985Z,96000.06
2019-05-18T18:23:42.998Z,96002.23
2019-05-18T18:26:10.453Z,96003.56
2019-05-18T18:28:38.051Z,96008.84
2019-05-18T18:31:05.508Z,96010.41
2019-05-18T18:33:33.000Z,96015.19
2019-05-18T18:36:00.459Z,96011.44
2019-05-18T18:38:27.935Z,96016.05
2019-05-18T18:40:55.404Z,96018.67
2019-05-18T18:43:23.084Z,96012.48
2019-05-18T18:45:50.182Z,96018.75
2019-05-18T18:48:17.753Z,96017.08
2019-05-18T18:50:45.238Z,96024.52
2019-05-18T18:53:12.770Z,96020.81
2019-05-18T18:55:40.506Z,96022.91
2019-05-18T18:58:07.604Z,96021.47
2019-05-18T19:00:34.609Z,96029.76
2019-05-18T19:03:02.055Z,96032.52
2019-05-18T19:05:29.568Z,96029.95
2019-05-18T19:07:57.072Z,96030.42
2019-05-18T19:10:24.539Z,96035.70
2019-05-18T19:12:52.095Z,96038.20
2019-05-18T19:15:19.668Z,96040.35
2019-05-18T19:17:47.130Z,96042.41
2019-05-18T19:20:14.652Z,96042.49
2019-05-18T19:22:42.235Z,96046.33
2019-05-18T19:25:09.735Z,96048.53
2019-05-18T19:27:37.476Z,96047.20
2019-05-18T19:30:09.372Z,96052.08
2019-05-18T19:32:32.987Z,96047.49
2019-05-18T19:35:00.459Z,96056.05
2019-05-18T19:37:27.969Z,96051.56
2019-05-18T19:39:55.499Z,96050.89
2019-05-18T19:42:23.396Z,96055.12
2019-05-18T19:44:50.951Z,96050.66
2019-05-18T19:47:18.526Z,96060.67
2019-05-18T19:49:46.152Z,96065.31
2019-05-18T19:52:13.852Z,96061.90
2019-05-18T19:54:41.360Z,96066.77
2019-05-18T19:57:08.911Z,96065.86
2019-05-18T19:59:36.457Z,96070.83
2019-05-18T20:02:04.096Z,96069.61
2019-05-18T20:04:31.619Z,96071.22
2019-05-18T20:06:59.152Z,96078.56
2019-05-18T20:09:26.673Z,96079.97
2019-05-18T20:11:54.256Z,96079.51
2019-05-18T20:14:21.759Z,96079.02
2019-05-18T20:16:49.376Z,96082.39
2019-05-18T20:19:18.202Z,96086.30
2019-05-18T20:21:45.823Z,96081.61
2019-05-18T20:24:14.325Z,96086.98
2019-05-18T20:26:41.857Z,96087.17
2019-05-18T20:29:09.677Z,96083.37
2019-05-18T20:31:37.212Z,96087.20
2019-05-18T20:34:04.748Z,96080.38
2019-05-18T20:36:32.271Z,96081.55
2019-05-18T20:38:59.735Z,96081.23
2019-05-18T20:41:27.288Z,96083.01
2019-05-18T20:43:54.751Z,96085.02
2019-05-18T20:46:22.279Z,96087.33
2019-05-18T20:48:49.738Z,96085.66
2019-05-18T20:51:17.239Z,96081.97
2019-05-18T20:53:44.756Z,96079.95
2019-05-18T20:56:12.240Z,96084.27
2019-05-18T20:58:40.854Z,96089.34
2019-05-18T21:01:07.306Z,96087.66
2019-05-18T21:03:34.811Z,96085.11
2019-05-18T21:06:02.366Z,96091.57
2019-05-18T21:08:29.892Z,96092.30
2019-05-18T21:10:57.370Z,96087.84
2019-05-18T21:13:25.848Z,96091.87
2019-05-18T21:15:53.343Z,96093.80
2019-05-18T21:18:20.911Z,96089.70
2019-05-18T21:20:48.450Z,96087.61
2019-05-18T21:23:15.940Z,96092.16
2019-05-18T21:25:43.610Z,96090.75
2019-05-18T21:28:11.066Z,96085.38
2019-05-18T21:30:38.599Z,96087.34
2019-05-18T21:33:06.139Z,96079.81
2019-05-18T21:35:33.625Z,96081.23
2019-05-18T21:38:01.367Z,96082.38
2019-05-18T21:40:29.004Z,96076.58
2019-05-18T21:42:56.540Z,96084.33
2019-05-18T21:45:24.157Z,96078.15
2019-05-18T21:47:52.803Z,96080.88
2019-05-18T21:50:20.575Z,96078.00
2019-05-18T21:52:48.026Z,96076.80
2019-05-18T21:55:15.576Z,96078.23
2019-05-18T21:57:43.077Z,96078.69
2019-05-18T22:00:10.594Z,96078.78
2019-05-18T22:02:38.084Z,96081.95
2019-05-18T22:05:05.568Z,96083.47
2019-05-18T22:07:33.055Z,96082.42
2019-05-18T22:10:00.617Z,96078.95
2019-05-18T22:12:28.150Z,96080.55
2019-05-18T22:14:55.638Z,96075.81
2019-05-18T22:17:23.208Z,96072.67
2019-05-18T22:19:50.729Z,96073.16
2019-05-18T22:22:18.282Z,96076.60
2019-05-18T22:24:46.538Z,96076.47
2019-05-18T22:27:14.015Z,96082.81
2019-05-18T22:29:41.609Z,96081.72
2019-05-18T22:32:09.128Z,96080.20
2019-05-18T22:34:36.769Z,96076.20
2019-05-18T22:37:04.253Z,96086.06
2019-05-18T22:39:31.888Z,96079.73
2019-05-18T22:41:59.532Z,96082.84
2019-05-18T22:44:27.023Z,96086.13
2019-05-18T22:46:54.512Z,96080.45
2019-05-18T22:49:21.988Z,96084.96
2019-05-18T22:51:49.426Z,96080.30
2019-05-18T22:54:16.893Z,96077.15
2019-05-18T22:56:44.343Z,96079.73
2019-05-18T22:59:12.514Z,96082.81
2019-05-18T23:01:39.976Z,96084.14
2019-05-18T23:04:07.423Z,96081.91
2019-05-18T23:06:34.891Z,96083.92
2019-05-18T23:09:03.356Z,96074.99
2019-05-18T23:11:30.927Z,96081.20
2019-05-18T23:13:58.418Z,96078.66
2019-05-18T23:16:25.877Z,96079.78
2019-05-18T23:18:56.856Z,96079.61
2019-05-18T23:21:20.858Z,96073.92
2019-05-18T23:23:48.318Z,96072.69
2019-05-18T23:26:15.775Z,96066.54
2019-05-18T23:28:43.275Z,96070.77
2019-05-18T23:31:11.025Z,96067.20
2019-05-18T23:33:38.564Z,96073.21
2019-05-18T23:36:06.092Z,96070.57
2019-05-18T23:38:33.570Z,96065.05
2019-05-18T23:41:01.113Z,96060.00
2019-05-18T23:43:28.594Z,96059.04
2019-05-18T23:45:56.126Z,96057.06
2019-05-18T23:48:23.694Z,96056.27
2019-05-18T23:50:51.242Z,96058.36
2019-05-18T23:53:18.753Z,96058.03
2019-05-18T23:55:46.210Z,96063.55
2019-05-18T23:58:13.760Z,96062.53
